sensor_id;sensor_type;location;lat;lon;timestamp;temperature;humidity
24011;DHT22;12217;50.792;4.372;2022-10-16T00:02:00;15.00;99.90
24011;DHT22;12217;50.792;4.372;2022-10-16T00:04:25;15.00;99.90
24011;DHT22;12217;50.792;4.372;2022-10-16T00:06:51;14.90;99.90
24011;DHT22;12217;50.792;4.372;2022-10-16T00:09:17;14.90;99.90
24011;DHT22;12217;50.792;4.372;2022-10-16T00:11:42;15.00;99.90
24011;DHT22;12217;50.792;4.372;2022-10-16T00:14:11;15.00;99.90
24011;DHT22;12217;50.792;4.372;2022-10-16T00:16:38;14.90;99.90
24011;DHT22;12217;50.792;4.372;2022-10-16T00:19:04;14.80;99.90
24011;DHT22;12217;50.792;4.372;2022-10-16T00:21:30;14.60;99.90
24011;DHT22;12217;50.792;4.372;2022-10-16T00:24:03;14.70;99.90
24011;DHT22;12217;50.792;4.372;2022-10-16T00:26:30;14.80;99.90
24011;DHT22;12217;50.792;4.372;2022-10-16T00:28:56;14.90;99.90
24011;DHT22;12217;50.792;4.372;2022-10-16T00:31:23;14.80;99.90
24011;DHT22;12217;50.792;4.372;2022-10-16T00:33:49;14.90;99.90
24011;DHT22;12217;50.792;4.372;2022-10-16T00:36:18;14.90;99.90
24011;DHT22;12217;50.792;4.372;2022-10-16T00:38:44;14.90;99.90
24011;DHT22;12217;50.792;4.372;2022-10-16T00:41:15;14.80;99.90
24011;DHT22;12217;50.792;4.372;2022-10-16T00:43:48;14.70;99.90
24011;DHT22;12217;50.792;4.372;2022-10-16T00:46:26;14.80;99.90
24011;DHT22;12217;50.792;4.372;2022-10-16T00:49:05;14.90;99.90
24011;DHT22;12217;50.792;4.372;2022-10-16T00:51:46;15.00;99.90
24011;DHT22;12217;50.792;4.372;2022-10-16T00:54:24;15.00;99.90
24011;DHT22;12217;50.792;4.372;2022-10-16T00:56:50;15.00;99.90
24011;DHT22;12217;50.792;4.372;2022-10-16T00:59:28;15.00;99.90
24011;DHT22;12217;50.792;4.372;2022-10-16T01:01:55;14.90;99.90
24011;DHT22;12217;50.792;4.372;2022-10-16T01:04:21;14.80;99.90
24011;DHT22;12217;50.792;4.372;2022-10-16T01:09:14;14.70;99.90
24011;DHT22;12217;50.792;4.372;2022-10-16T01:12:05;14.70;99.90
24011;DHT22;12217;50.792;4.372;2022-10-16T01:17:16;14.80;99.90
24011;DHT22;12217;50.792;4.372;2022-10-16T01:28:19;14.70;99.90
24011;DHT22;12217;50.792;4.372;2022-10-16T01:30:48;14.60;99.90
24011;DHT22;12217;50.792;4.372;2022-10-16T01:33:22;14.60;99.90
24011;DHT22;12217;50.792;4.372;2022-10-16T01:35:54;14.50;99.90
24011;DHT22;12217;50.792;4.372;2022-10-16T01:38:34;14.50;99.90
24011;DHT22;12217;50.792;4.372;2022-10-16T01:41:06;14.50;99.90
24011;DHT22;12217;50.792;4.372;2022-10-16T01:46:26;14.50;99.90
24011;DHT22;12217;50.792;4.372;2022-10-16T01:48:53;14.60;99.90
24011;DHT22;12217;50.792;4.372;2022-10-16T01:51:21;14.60;99.90
24011;DHT22;12217;50.792;4.372;2022-10-16T01:53:50;14.50;99.90
24011;DHT22;12217;50.792;4.372;2022-10-16T01:56:18;14.50;99.90
24011;DHT22;12217;50.792;4.372;2022-10-16T01:58:49;14.60;99.90
24011;DHT22;12217;50.792;4.372;2022-10-16T02:01:18;14.50;99.90
24011;DHT22;12217;50.792;4.372;2022-10-16T02:03:45;14.50;99.90
24011;DHT22;12217;50.792;4.372;2022-10-16T02:06:12;14.60;99.90
24011;DHT22;12217;50.792;4.372;2022-10-16T02:08:38;14.60;99.90
24011;DHT22;12217;50.792;4.372;2022-10-16T02:11:06;14.40;99.90
24011;DHT22;12217;50.792;4.372;2022-10-16T02:13:45;14.40;99.90
24011;DHT22;12217;50.792;4.372;2022-10-16T02:16:13;14.40;99.90
24011;DHT22;12217;50.792;4.372;2022-10-16T02:18:39;14.30;99.90
24011;DHT22;12217;50.792;4.372;2022-10-16T02:21:27;14.40;99.90
24011;DHT22;12217;50.792;4.372;2022-10-16T02:24:43;14.40;99.90
24011;DHT22;12217;50.792;4.372;2022-10-16T02:26:59;14.30;99.90
24011;DHT22;12217;50.792;4.372;2022-10-16T02:29:27;14.30;99.90
24011;DHT22;12217;50.792;4.372;2022-10-16T02:31:57;14.40;99.90
24011;DHT22;12217;50.792;4.372;2022-10-16T02:34:24;14.40;99.90
24011;DHT22;12217;50.792;4.372;2022-10-16T02:36:51;14.30;99.90
24011;DHT22;12217;50.792;4.372;2022-10-16T02:39:18;14.40;99.90
24011;DHT22;12217;50.792;4.372;2022-10-16T02:41:43;14.50;99.90
24011;DHT22;12217;50.792;4.372;2022-10-16T02:44:09;14.50;99.90
24011;DHT22;12217;50.792;4.372;2022-10-16T02:46:35;14.50;99.90
24011;DHT22;12217;50.792;4.372;2022-10-16T02:49:00;14.40;99.90
24011;DHT22;12217;50.792;4.372;2022-10-16T02:51:26;14.30;99.90
24011;DHT22;12217;50.792;4.372;2022-10-16T02:53:52;14.40;99.90
24011;DHT22;12217;50.792;4.372;2022-10-16T02:56:18;14.40;99.90
24011;DHT22;12217;50.792;4.372;2022-10-16T02:58:44;14.40;99.90
24011;DHT22;12217;50.792;4.372;2022-10-16T03:01:09;14.40;99.90
24011;DHT22;12217;50.792;4.372;2022-10-16T03:03:35;14.30;99.90
24011;DHT22;12217;50.792;4.372;2022-10-16T03:06:01;14.30;99.90
24011;DHT22;12217;50.792;4.372;2022-10-16T03:08:27;14.30;99.90
24011;DHT22;12217;50.792;4.372;2022-10-16T03:10:52;14.40;99.90
24011;DHT22;12217;50.792;4.372;2022-10-16T03:13:18;14.50;99.90
24011;DHT22;12217;50.792;4.372;2022-10-16T03:15:46;14.50;99.90
24011;DHT22;12217;50.792;4.372;2022-10-16T03:18:11;14.50;99.90
24011;DHT22;12217;50.792;4.372;2022-10-16T03:20:37;14.50;99.90
24011;DHT22;12217;50.792;4.372;2022-10-16T03:23:03;14.40;99.90
24011;DHT22;12217;50.792;4.372;2022-10-16T03:25:29;14.40;99.90
24011;DHT22;12217;50.792;4.372;2022-10-16T03:27:54;14.40;99.90
24011;DHT22;12217;50.792;4.372;2022-10-16T03:30:20;14.40;99.90
24011;DHT22;12217;50.792;4.372;2022-10-16T03:32:46;14.40;99.90
24011;DHT22;12217;50.792;4.372;2022-10-16T03:35:12;14.50;99.90
24011;DHT22;12217;50.792;4.372;2022-10-16T03:37:37;14.50;99.90
24011;DHT22;12217;50.792;4.372;2022-10-16T03:40:04;14.50;99.90
24011;DHT22;12217;50.792;4.372;2022-10-16T03:42:29;14.50;99.90
24011;DHT22;12217;50.792;4.372;2022-10-16T03:44:55;14.50;99.90
24011;DHT22;12217;50.792;4.372;2022-10-16T03:47:21;14.50;99.90
24011;DHT22;12217;50.792;4.372;2022-10-16T03:49:49;14.60;99.90
24011;DHT22;12217;50.792;4.372;2022-10-16T03:52:14;14.40;99.90
24011;DHT22;12217;50.792;4.372;2022-10-16T03:54:40;14.40;99.90
24011;DHT22;12217;50.792;4.372;2022-10-16T03:57:06;14.50;99.90
24011;DHT22;12217;50.792;4.372;2022-10-16T03:59:31;14.50;99.90
24011;DHT22;12217;50.792;4.372;2022-10-16T04:01:57;14.50;99.90
24011;DHT22;12217;50.792;4.372;2022-10-16T04:04:23;14.50;99.90
24011;DHT22;12217;50.792;4.372;2022-10-16T04:06:49;14.50;99.90
24011;DHT22;12217;50.792;4.372;2022-10-16T04:09:15;14.50;99.90
24011;DHT22;12217;50.792;4.372;2022-10-16T04:11:40;14.50;99.90
24011;DHT22;12217;50.792;4.372;2022-10-16T04:14:06;14.40;99.90
24011;DHT22;12217;50.792;4.372;2022-10-16T04:16:31;14.40;99.90
24011;DHT22;12217;50.792;4.372;2022-10-16T04:18:57;14.40;99.90
24011;DHT22;12217;50.792;4.372;2022-10-16T04:21:23;14.50;99.90
24011;DHT22;12217;50.792;4.372;2022-10-16T04:23:48;14.50;99.90
24011;DHT22;12217;50.792;4.372;2022-10-16T04:26:14;14.60;99.90
24011;DHT22;12217;50.792;4.372;2022-10-16T04:28:40;14.40;99.90
24011;DHT22;12217;50.792;4.372;2022-10-16T04:31:06;14.20;99.90
24011;DHT22;12217;50.792;4.372;2022-10-16T04:33:32;14.20;99.90
24011;DHT22;12217;50.792;4.372;2022-10-16T04:35:59;14.30;99.90
24011;DHT22;12217;50.792;4.372;2022-10-16T04:38:25;14.10;99.90
24011;DHT22;12217;50.792;4.372;2022-10-16T04:40:51;14.20;99.90
24011;DHT22;12217;50.792;4.372;2022-10-16T04:43:17;14.20;99.90
24011;DHT22;12217;50.792;4.372;2022-10-16T04:45:43;14.20;99.90
24011;DHT22;12217;50.792;4.372;2022-10-16T04:48:09;14.30;99.90
24011;DHT22;12217;50.792;4.372;2022-10-16T04:50:34;14.30;99.90
24011;DHT22;12217;50.792;4.372;2022-10-16T04:53:00;14.30;99.90
24011;DHT22;12217;50.792;4.372;2022-10-16T04:55:26;14.40;99.90
24011;DHT22;12217;50.792;4.372;2022-10-16T04:57:51;14.40;99.90
24011;DHT22;12217;50.792;4.372;2022-10-16T05:00:17;14.40;99.90
24011;DHT22;12217;50.792;4.372;2022-10-16T05:02:43;14.50;99.90
24011;DHT22;12217;50.792;4.372;2022-10-16T05:05:09;14.40;99.90
24011;DHT22;12217;50.792;4.372;2022-10-16T05:07:35;14.30;99.90
24011;DHT22;12217;50.792;4.372;2022-10-16T05:10:00;14.20;99.90
24011;DHT22;12217;50.792;4.372;2022-10-16T05:12:26;14.30;99.90
24011;DHT22;12217;50.792;4.372;2022-10-16T05:14:52;14.30;99.90
24011;DHT22;12217;50.792;4.372;2022-10-16T05:17:17;14.30;99.90
24011;DHT22;12217;50.792;4.372;2022-10-16T05:19:43;14.20;99.90
24011;DHT22;12217;50.792;4.372;2022-10-16T05:22:08;14.20;99.90
24011;DHT22;12217;50.792;4.372;2022-10-16T05:24:34;14.20;99.90
24011;DHT22;12217;50.792;4.372;2022-10-16T05:27:00;14.30;99.90
24011;DHT22;12217;50.792;4.372;2022-10-16T05:29:25;14.40;99.90
24011;DHT22;12217;50.792;4.372;2022-10-16T05:31:54;14.40;99.90
24011;DHT22;12217;50.792;4.372;2022-10-16T05:34:20;14.40;99.90
24011;DHT22;12217;50.792;4.372;2022-10-16T05:36:46;14.20;99.90
24011;DHT22;12217;50.792;4.372;2022-10-16T05:39:14;14.20;99.90
24011;DHT22;12217;50.792;4.372;2022-10-16T05:41:40;14.20;99.90
24011;DHT22;12217;50.792;4.372;2022-10-16T05:44:06;14.10;99.90
24011;DHT22;12217;50.792;4.372;2022-10-16T05:46:32;14.20;99.90
24011;DHT22;12217;50.792;4.372;2022-10-16T05:48:58;14.20;99.90
24011;DHT22;12217;50.792;4.372;2022-10-16T05:51:24;14.10;99.90
24011;DHT22;12217;50.792;4.372;2022-10-16T05:53:50;14.00;99.90
24011;DHT22;12217;50.792;4.372;2022-10-16T05:56:17;14.00;99.90
24011;DHT22;12217;50.792;4.372;2022-10-16T05:58:42;14.00;99.90
24011;DHT22;12217;50.792;4.372;2022-10-16T06:01:15;14.20;99.90
24011;DHT22;12217;50.792;4.372;2022-10-16T06:03:41;14.20;99.90
24011;DHT22;12217;50.792;4.372;2022-10-16T06:08:35;14.10;99.90
24011;DHT22;12217;50.792;4.372;2022-10-16T06:11:06;14.10;99.90
24011;DHT22;12217;50.792;4.372;2022-10-16T06:13:31;14.10;99.90
24011;DHT22;12217;50.792;4.372;2022-10-16T06:15:59;14.10;99.90
24011;DHT22;12217;50.792;4.372;2022-10-16T06:18:26;14.10;99.90
24011;DHT22;12217;50.792;4.372;2022-10-16T06:20:52;14.10;99.90
24011;DHT22;12217;50.792;4.372;2022-10-16T06:23:18;14.00;99.90
24011;DHT22;12217;50.792;4.372;2022-10-16T06:25:43;13.90;99.90
24011;DHT22;12217;50.792;4.372;2022-10-16T06:28:09;14.00;99.90
24011;DHT22;12217;50.792;4.372;2022-10-16T06:30:34;14.20;99.90
24011;DHT22;12217;50.792;4.372;2022-10-16T06:33:00;14.20;99.90
24011;DHT22;12217;50.792;4.372;2022-10-16T06:35:26;14.30;99.90
24011;DHT22;12217;50.792;4.372;2022-10-16T06:37:53;14.40;99.90
24011;DHT22;12217;50.792;4.372;2022-10-16T06:40:18;14.30;99.90
24011;DHT22;12217;50.792;4.372;2022-10-16T06:42:44;14.30;99.90
24011;DHT22;12217;50.792;4.372;2022-10-16T06:45:10;14.40;99.90
24011;DHT22;12217;50.792;4.372;2022-10-16T06:47:36;14.40;99.90
24011;DHT22;12217;50.792;4.372;2022-10-16T06:50:02;14.40;99.90
24011;DHT22;12217;50.792;4.372;2022-10-16T06:52:28;14.30;99.90
24011;DHT22;12217;50.792;4.372;2022-10-16T06:54:54;14.30;99.90
24011;DHT22;12217;50.792;4.372;2022-10-16T06:57:20;14.40;99.90
24011;DHT22;12217;50.792;4.372;2022-10-16T06:59:45;14.40;99.90
24011;DHT22;12217;50.792;4.372;2022-10-16T07:02:11;14.50;99.90
24011;DHT22;12217;50.792;4.372;2022-10-16T07:04:37;14.50;99.90
24011;DHT22;12217;50.792;4.372;2022-10-16T07:07:02;14.50;99.90
24011;DHT22;12217;50.792;4.372;2022-10-16T07:09:28;14.50;99.90
24011;DHT22;12217;50.792;4.372;2022-10-16T07:11:54;14.50;99.90
24011;DHT22;12217;50.792;4.372;2022-10-16T07:14:21;14.40;99.90
24011;DHT22;12217;50.792;4.372;2022-10-16T07:16:47;14.50;99.90
24011;DHT22;12217;50.792;4.372;2022-10-16T07:19:14;14.60;99.90
24011;DHT22;12217;50.792;4.372;2022-10-16T07:21:41;14.60;99.90
24011;DHT22;12217;50.792;4.372;2022-10-16T07:24:12;14.60;99.90
24011;DHT22;12217;50.792;4.372;2022-10-16T07:26:39;14.70;99.90
24011;DHT22;12217;50.792;4.372;2022-10-16T07:29:07;14.80;99.90
24011;DHT22;12217;50.792;4.372;2022-10-16T07:31:34;14.80;99.90
24011;DHT22;12217;50.792;4.372;2022-10-16T07:34:00;14.90;99.90
24011;DHT22;12217;50.792;4.372;2022-10-16T07:36:26;14.90;99.90
24011;DHT22;12217;50.792;4.372;2022-10-16T07:38:52;14.90;99.90
24011;DHT22;12217;50.792;4.372;2022-10-16T07:41:19;14.90;99.90
24011;DHT22;12217;50.792;4.372;2022-10-16T07:43:49;15.10;99.90
24011;DHT22;12217;50.792;4.372;2022-10-16T07:46:15;15.20;99.90
24011;DHT22;12217;50.792;4.372;2022-10-16T07:48:41;15.20;99.90
24011;DHT22;12217;50.792;4.372;2022-10-16T07:51:11;15.40;99.90
24011;DHT22;12217;50.792;4.372;2022-10-16T07:53:37;15.50;99.90
24011;DHT22;12217;50.792;4.372;2022-10-16T07:56:05;15.40;99.90
24011;DHT22;12217;50.792;4.372;2022-10-16T07:58:32;15.50;99.90
24011;DHT22;12217;50.792;4.372;2022-10-16T08:00:58;15.60;99.90
24011;DHT22;12217;50.792;4.372;2022-10-16T08:03:24;15.80;99.90
24011;DHT22;12217;50.792;4.372;2022-10-16T08:05:50;15.80;99.90
24011;DHT22;12217;50.792;4.372;2022-10-16T08:08:17;15.90;99.90
24011;DHT22;12217;50.792;4.372;2022-10-16T08:10:44;15.80;99.90
24011;DHT22;12217;50.792;4.372;2022-10-16T08:13:10;15.90;99.90
24011;DHT22;12217;50.792;4.372;2022-10-16T08:15:36;15.80;99.90
24011;DHT22;12217;50.792;4.372;2022-10-16T08:18:03;15.90;99.90
24011;DHT22;12217;50.792;4.372;2022-10-16T08:20:31;16.00;99.90
24011;DHT22;12217;50.792;4.372;2022-10-16T08:22:57;16.10;99.90
24011;DHT22;12217;50.792;4.372;2022-10-16T08:25:25;16.00;99.90
24011;DHT22;12217;50.792;4.372;2022-10-16T08:27:50;15.90;99.90
24011;DHT22;12217;50.792;4.372;2022-10-16T08:30:18;16.00;99.90
24011;DHT22;12217;50.792;4.372;2022-10-16T08:32:44;16.10;99.90
24011;DHT22;12217;50.792;4.372;2022-10-16T08:35:10;16.10;99.90
24011;DHT22;12217;50.792;4.372;2022-10-16T08:37:37;16.00;99.90
24011;DHT22;12217;50.792;4.372;2022-10-16T08:40:05;16.20;99.90
24011;DHT22;12217;50.792;4.372;2022-10-16T08:51:02;16.60;99.90
24011;DHT22;12217;50.792;4.372;2022-10-16T08:53:43;16.70;99.90
24011;DHT22;12217;50.792;4.372;2022-10-16T08:56:10;16.70;99.90
24011;DHT22;12217;50.792;4.372;2022-10-16T08:58:36;16.70;99.90
24011;DHT22;12217;50.792;4.372;2022-10-16T09:01:04;16.70;99.90
24011;DHT22;12217;50.792;4.372;2022-10-16T09:14:20;17.00;99.90
24011;DHT22;12217;50.792;4.372;2022-10-16T09:17:03;17.10;99.90
24011;DHT22;12217;50.792;4.372;2022-10-16T09:19:36;17.40;99.90
24011;DHT22;12217;50.792;4.372;2022-10-16T09:22:12;17.60;99.90
24011;DHT22;12217;50.792;4.372;2022-10-16T09:24:39;17.80;99.90
24011;DHT22;12217;50.792;4.372;2022-10-16T09:27:11;17.70;99.90
24011;DHT22;12217;50.792;4.372;2022-10-16T09:29:37;17.70;99.90
24011;DHT22;12217;50.792;4.372;2022-10-16T09:32:28;17.80;99.90
24011;DHT22;12217;50.792;4.372;2022-10-16T09:34:55;17.70;99.90
24011;DHT22;12217;50.792;4.372;2022-10-16T09:37:23;17.80;99.90
24011;DHT22;12217;50.792;4.372;2022-10-16T09:39:53;17.90;99.90
24011;DHT22;12217;50.792;4.372;2022-10-16T09:42:33;18.10;99.90
24011;DHT22;12217;50.792;4.372;2022-10-16T09:45:00;18.20;99.90
24011;DHT22;12217;50.792;4.372;2022-10-16T09:47:28;18.10;99.90
24011;DHT22;12217;50.792;4.372;2022-10-16T09:49:57;18.10;99.90
24011;DHT22;12217;50.792;4.372;2022-10-16T09:52:24;18.30;99.90
24011;DHT22;12217;50.792;4.372;2022-10-16T09:55:02;18.60;99.90
24011;DHT22;12217;50.792;4.372;2022-10-16T09:57:28;18.90;99.90
24011;DHT22;12217;50.792;4.372;2022-10-16T09:59:57;19.10;99.90
24011;DHT22;12217;50.792;4.372;2022-10-16T10:02:33;19.10;99.90
24011;DHT22;12217;50.792;4.372;2022-10-16T10:04:59;19.00;99.90
24011;DHT22;12217;50.792;4.372;2022-10-16T10:07:29;19.10;99.90
24011;DHT22;12217;50.792;4.372;2022-10-16T10:09:59;19.20;99.90
24011;DHT22;12217;50.792;4.372;2022-10-16T10:12:30;19.50;99.90
24011;DHT22;12217;50.792;4.372;2022-10-16T10:15:07;19.50;99.90
24011;DHT22;12217;50.792;4.372;2022-10-16T10:17:33;19.30;99.90
24011;DHT22;12217;50.792;4.372;2022-10-16T10:20:29;19.20;99.90
24011;DHT22;12217;50.792;4.372;2022-10-16T10:22:55;18.80;99.90
24011;DHT22;12217;50.792;4.372;2022-10-16T10:30:56;19.20;99.90
24011;DHT22;12217;50.792;4.372;2022-10-16T10:36:37;19.90;99.90
24011;DHT22;12217;50.792;4.372;2022-10-16T10:42:46;20.00;99.90
24011;DHT22;12217;50.792;4.372;2022-10-16T10:45:28;20.40;99.90
24011;DHT22;12217;50.792;4.372;2022-10-16T10:50:43;21.20;99.90
24011;DHT22;12217;50.792;4.372;2022-10-16T10:53:28;21.30;99.90
24011;DHT22;12217;50.792;4.372;2022-10-16T11:07:18;22.80;99.90
24011;DHT22;12217;50.792;4.372;2022-10-16T11:09:50;23.00;99.90
24011;DHT22;12217;50.792;4.372;2022-10-16T11:12:20;23.80;99.90
24011;DHT22;12217;50.792;4.372;2022-10-16T11:15:07;23.10;99.90
24011;DHT22;12217;50.792;4.372;2022-10-16T11:23:28;24.10;99.90
24011;DHT22;12217;50.792;4.372;2022-10-16T11:26:02;24.00;99.90
24011;DHT22;12217;50.792;4.372;2022-10-16T11:28:42;24.80;99.90
24011;DHT22;12217;50.792;4.372;2022-10-16T11:31:22;24.80;99.90
24011;DHT22;12217;50.792;4.372;2022-10-16T11:37:10;25.10;99.90
24011;DHT22;12217;50.792;4.372;2022-10-16T11:39:38;25.50;99.90
24011;DHT22;12217;50.792;4.372;2022-10-16T11:42:21;26.30;99.90
24011;DHT22;12217;50.792;4.372;2022-10-16T11:45:02;26.20;99.90
24011;DHT22;12217;50.792;4.372;2022-10-16T11:47:56;26.00;99.90
24011;DHT22;12217;50.792;4.372;2022-10-16T11:50:33;24.90;99.90
24011;DHT22;12217;50.792;4.372;2022-10-16T11:55:40;23.20;99.90
24011;DHT22;12217;50.792;4.372;2022-10-16T12:03:26;22.10;99.90
24011;DHT22;12217;50.792;4.372;2022-10-16T12:08:33;22.10;99.90
24011;DHT22;12217;50.792;4.372;2022-10-16T12:11:22;22.20;99.90
24011;DHT22;12217;50.792;4.372;2022-10-16T12:13:48;21.90;99.90
24011;DHT22;12217;50.792;4.372;2022-10-16T12:18:40;21.80;99.90
24011;DHT22;12217;50.792;4.372;2022-10-16T12:21:07;21.60;99.90
24011;DHT22;12217;50.792;4.372;2022-10-16T12:23:37;21.60;99.90
24011;DHT22;12217;50.792;4.372;2022-10-16T12:26:04;21.60;99.90
24011;DHT22;12217;50.792;4.372;2022-10-16T12:28:31;21.70;99.90
24011;DHT22;12217;50.792;4.372;2022-10-16T12:31:06;21.60;99.90
24011;DHT22;12217;50.792;4.372;2022-10-16T12:33:41;21.60;99.90
24011;DHT22;12217;50.792;4.372;2022-10-16T12:36:16;21.10;99.90
24011;DHT22;12217;50.792;4.372;2022-10-16T12:38:52;21.10;99.90
24011;DHT22;12217;50.792;4.372;2022-10-16T12:41:32;21.00;99.90
24011;DHT22;12217;50.792;4.372;2022-10-16T12:44:00;20.70;99.90
24011;DHT22;12217;50.792;4.372;2022-10-16T12:51:41;20.80;99.90
24011;DHT22;12217;50.792;4.372;2022-10-16T12:54:20;20.70;99.90
24011;DHT22;12217;50.792;4.372;2022-10-16T13:00:04;20.20;99.90
24011;DHT22;12217;50.792;4.372;2022-10-16T13:05:32;20.30;99.90
24011;DHT22;12217;50.792;4.372;2022-10-16T13:08:03;20.40;99.90
24011;DHT22;12217;50.792;4.372;2022-10-16T13:13:40;20.50;99.90
24011;DHT22;12217;50.792;4.372;2022-10-16T13:25:08;20.50;99.90
24011;DHT22;12217;50.792;4.372;2022-10-16T13:28:01;20.50;99.90
24011;DHT22;12217;50.792;4.372;2022-10-16T13:30:29;20.70;99.90
24011;DHT22;12217;50.792;4.372;2022-10-16T13:33:16;20.80;99.90
24011;DHT22;12217;50.792;4.372;2022-10-16T13:35:51;21.10;99.90
24011;DHT22;12217;50.792;4.372;2022-10-16T13:38:20;21.50;99.90
24011;DHT22;12217;50.792;4.372;2022-10-16T13:41:00;21.70;99.90
24011;DHT22;12217;50.792;4.372;2022-10-16T13:44:08;21.20;99.90
24011;DHT22;12217;50.792;4.372;2022-10-16T13:46:37;21.10;99.90
24011;DHT22;12217;50.792;4.372;2022-10-16T13:49:05;20.90;99.90
24011;DHT22;12217;50.792;4.372;2022-10-16T13:51:32;20.20;99.90
24011;DHT22;12217;50.792;4.372;2022-10-16T13:53:58;20.30;99.90
24011;DHT22;12217;50.792;4.372;2022-10-16T13:56:30;20.20;99.90
24011;DHT22;12217;50.792;4.372;2022-10-16T13:59:04;20.30;99.90
24011;DHT22;12217;50.792;4.372;2022-10-16T14:01:42;20.40;99.90
24011;DHT22;12217;50.792;4.372;2022-10-16T14:04:11;20.40;99.90
24011;DHT22;12217;50.792;4.372;2022-10-16T14:06:41;20.50;99.90
24011;DHT22;12217;50.792;4.372;2022-10-16T14:09:29;20.60;99.90
24011;DHT22;12217;50.792;4.372;2022-10-16T14:12:01;20.50;99.90
24011;DHT22;12217;50.792;4.372;2022-10-16T14:14:35;20.30;99.90
24011;DHT22;12217;50.792;4.372;2022-10-16T14:17:05;20.40;99.90
24011;DHT22;12217;50.792;4.372;2022-10-16T14:19:31;20.40;99.90
24011;DHT22;12217;50.792;4.372;2022-10-16T14:21:58;20.60;99.90
24011;DHT22;12217;50.792;4.372;2022-10-16T14:24:33;20.70;99.90
24011;DHT22;12217;50.792;4.372;2022-10-16T14:27:00;20.90;99.90
24011;DHT22;12217;50.792;4.372;2022-10-16T14:29:28;20.90;99.90
24011;DHT22;12217;50.792;4.372;2022-10-16T14:32:02;21.00;99.90
24011;DHT22;12217;50.792;4.372;2022-10-16T14:36:55;21.30;99.90
24011;DHT22;12217;50.792;4.372;2022-10-16T14:39:22;21.40;99.90
24011;DHT22;12217;50.792;4.372;2022-10-16T14:41:50;21.60;99.90
24011;DHT22;12217;50.792;4.372;2022-10-16T14:44:18;21.50;99.90
24011;DHT22;12217;50.792;4.372;2022-10-16T14:46:45;21.30;99.90
24011;DHT22;12217;50.792;4.372;2022-10-16T14:51:38;21.30;99.90
24011;DHT22;12217;50.792;4.372;2022-10-16T14:54:08;21.10;99.90
24011;DHT22;12217;50.792;4.372;2022-10-16T14:56:47;20.90;99.90
24011;DHT22;12217;50.792;4.372;2022-10-16T15:01:45;20.90;99.90
24011;DHT22;12217;50.792;4.372;2022-10-16T15:04:12;21.00;99.90
24011;DHT22;12217;50.792;4.372;2022-10-16T15:06:38;21.00;99.90
24011;DHT22;12217;50.792;4.372;2022-10-16T15:09:04;21.00;99.90
24011;DHT22;12217;50.792;4.372;2022-10-16T15:11:31;21.00;99.90
24011;DHT22;12217;50.792;4.372;2022-10-16T15:13:58;21.10;99.90
24011;DHT22;12217;50.792;4.372;2022-10-16T15:16:24;21.10;99.90
24011;DHT22;12217;50.792;4.372;2022-10-16T15:18:49;21.00;99.90
24011;DHT22;12217;50.792;4.372;2022-10-16T15:21:30;21.00;99.90
24011;DHT22;12217;50.792;4.372;2022-10-16T15:23:56;21.00;99.90
24011;DHT22;12217;50.792;4.372;2022-10-16T15:26:24;20.90;99.90
24011;DHT22;12217;50.792;4.372;2022-10-16T15:28:50;21.00;99.90
24011;DHT22;12217;50.792;4.372;2022-10-16T15:31:15;20.90;99.90
24011;DHT22;12217;50.792;4.372;2022-10-16T15:33:41;20.80;99.90
24011;DHT22;12217;50.792;4.372;2022-10-16T15:36:07;20.70;99.90
24011;DHT22;12217;50.792;4.372;2022-10-16T15:38:33;20.70;99.90
24011;DHT22;12217;50.792;4.372;2022-10-16T15:40:59;20.70;99.90
24011;DHT22;12217;50.792;4.372;2022-10-16T15:43:24;20.60;99.90
24011;DHT22;12217;50.792;4.372;2022-10-16T15:46:05;20.50;99.90
24011;DHT22;12217;50.792;4.372;2022-10-16T15:48:32;20.50;99.90
24011;DHT22;12217;50.792;4.372;2022-10-16T15:50:59;20.50;99.90
24011;DHT22;12217;50.792;4.372;2022-10-16T15:53:25;20.40;99.90
24011;DHT22;12217;50.792;4.372;2022-10-16T15:55:51;20.40;99.90
24011;DHT22;12217;50.792;4.372;2022-10-16T15:58:17;20.30;99.90
24011;DHT22;12217;50.792;4.372;2022-10-16T16:00:42;20.30;99.90
24011;DHT22;12217;50.792;4.372;2022-10-16T16:03:08;20.20;99.90
24011;DHT22;12217;50.792;4.372;2022-10-16T16:05:38;20.10;99.90
24011;DHT22;12217;50.792;4.372;2022-10-16T16:08:04;20.10;99.90
24011;DHT22;12217;50.792;4.372;2022-10-16T16:10:29;20.20;99.90
24011;DHT22;12217;50.792;4.372;2022-10-16T16:12:55;20.10;99.90
24011;DHT22;12217;50.792;4.372;2022-10-16T16:15:21;20.10;99.90
24011;DHT22;12217;50.792;4.372;2022-10-16T16:17:47;20.10;99.90
24011;DHT22;12217;50.792;4.372;2022-10-16T16:20:13;20.00;99.90
24011;DHT22;12217;50.792;4.372;2022-10-16T16:22:39;20.10;99.90
24011;DHT22;12217;50.792;4.372;2022-10-16T16:25:05;20.00;99.90
24011;DHT22;12217;50.792;4.372;2022-10-16T16:27:31;20.00;99.90
24011;DHT22;12217;50.792;4.372;2022-10-16T16:29:59;20.00;99.90
24011;DHT22;12217;50.792;4.372;2022-10-16T16:32:25;20.00;99.90
24011;DHT22;12217;50.792;4.372;2022-10-16T16:34:51;20.00;99.90
24011;DHT22;12217;50.792;4.372;2022-10-16T16:37:17;19.90;99.90
24011;DHT22;12217;50.792;4.372;2022-10-16T16:39:42;19.90;99.90
24011;DHT22;12217;50.792;4.372;2022-10-16T16:42:08;19.80;99.90
24011;DHT22;12217;50.792;4.372;2022-10-16T16:44:35;19.80;99.90
24011;DHT22;12217;50.792;4.372;2022-10-16T16:47:02;19.80;99.90
24011;DHT22;12217;50.792;4.372;2022-10-16T16:49:28;19.60;99.90
24011;DHT22;12217;50.792;4.372;2022-10-16T16:51:53;19.60;99.90
24011;DHT22;12217;50.792;4.372;2022-10-16T16:54:19;19.60;99.90
24011;DHT22;12217;50.792;4.372;2022-10-16T16:56:45;19.50;99.90
24011;DHT22;12217;50.792;4.372;2022-10-16T16:59:18;19.20;99.90
24011;DHT22;12217;50.792;4.372;2022-10-16T17:01:45;18.90;99.90
24011;DHT22;12217;50.792;4.372;2022-10-16T17:04:12;18.70;99.90
24011;DHT22;12217;50.792;4.372;2022-10-16T17:06:41;18.80;99.90
24011;DHT22;12217;50.792;4.372;2022-10-16T17:09:07;18.90;99.90
24011;DHT22;12217;50.792;4.372;2022-10-16T17:11:33;19.00;99.90
24011;DHT22;12217;50.792;4.372;2022-10-16T17:14:00;18.90;99.90
24011;DHT22;12217;50.792;4.372;2022-10-16T17:16:30;19.00;99.90
24011;DHT22;12217;50.792;4.372;2022-10-16T17:18:59;18.90;99.90
24011;DHT22;12217;50.792;4.372;2022-10-16T17:21:25;18.90;99.90
24011;DHT22;12217;50.792;4.372;2022-10-16T17:23:52;18.90;99.90
24011;DHT22;12217;50.792;4.372;2022-10-16T17:26:18;18.90;99.90
24011;DHT22;12217;50.792;4.372;2022-10-16T17:28:44;18.80;99.90
24011;DHT22;12217;50.792;4.372;2022-10-16T17:31:18;18.80;99.90
24011;DHT22;12217;50.792;4.372;2022-10-16T17:33:45;18.70;99.90
24011;DHT22;12217;50.792;4.372;2022-10-16T17:36:11;18.70;99.90
24011;DHT22;12217;50.792;4.372;2022-10-16T17:38:42;18.70;99.90